Time;durP1;ratioP1;P1;durP2;ratioP2;P2;SDS_P1;SDS_P2;PMS_P1;PMS_P2;Temp;Humidity;BMP_temperature;BMP_pressure;BME280_temperature;BME280_humidity;BME280_pressure;Samples;Min_cycle;Max_cycle;Signal;HPM_P1;HPM_P2
2023/11/09 00:01:00;;;;;;;2.97;1.40;;;9.70;99.90;;;;;;4974960;28;21080;-81
2023/11/09 00:03:28;;;;;;;3.07;1.23;;;9.70;99.90;;;;;;4978837;28;20452;-82
2023/11/09 00:05:57;;;;;;;3.13;1.53;;;9.80;99.90;;;;;;4978466;28;20475;-82
2023/11/09 00:08:24;;;;;;;5.73;2.10;;;9.80;99.90;;;;;;4978490;28;20493;-83
2023/11/09 00:10:51;;;;;;;4.07;2.03;;;9.70;99.90;;;;;;4978866;28;20974;-81
2023/11/09 00:13:19;;;;;;;4.70;2.20;;;9.80;99.90;;;;;;4979066;28;20464;-82
2023/11/09 00:15:46;;;;;;;3.60;1.97;;;9.80;99.90;;;;;;4977666;28;20482;-82
2023/11/09 00:18:21;;;;;;;1.77;1.40;;;9.70;99.90;;;;;;4978838;28;20469;-81
2023/11/09 00:20:49;;;;;;;3.23;1.63;;;9.80;99.90;;;;;;4974436;28;20494;-82
2023/11/09 00:23:16;;;;;;;3.80;1.60;;;9.80;99.90;;;;;;4972895;28;20545;-83
2023/11/09 00:25:43;;;;;;;2.10;1.50;;;9.80;99.90;;;;;;4975079;28;20480;-83
2023/11/09 00:28:10;;;;;;;3.67;1.60;;;9.90;99.90;;;;;;4976628;28;21042;-82
2023/11/09 00:30:36;;;;;;;3.90;2.10;;;9.90;99.90;;;;;;4977002;28;20461;-81
2023/11/09 00:33:03;;;;;;;2.23;1.53;;;9.90;99.90;;;;;;4977984;28;20658;-81
2023/11/09 00:35:30;;;;;;;3.10;1.50;;;9.90;99.90;;;;;;4971322;28;20511;-83
2023/11/09 00:38:00;;;;;;;2.13;1.50;;;9.90;99.90;;;;;;4978574;28;20467;-82
2023/11/09 00:40:26;;;;;;;2.00;1.30;;;9.90;99.90;;;;;;4976922;28;20525;-83
2023/11/09 00:42:53;;;;;;;1.83;1.33;;;9.80;99.90;;;;;;4977113;28;20814;-84
2023/11/09 00:45:20;;;;;;;2.17;1.50;;;9.90;99.90;;;;;;4977025;28;20578;-83
2023/11/09 00:47:47;;;;;;;2.50;1.70;;;9.90;99.90;;;;;;4966975;28;20455;-82
2023/11/09 00:50:14;;;;;;;2.17;1.53;;;9.90;99.90;;;;;;4972871;28;20455;-82
2023/11/09 00:52:41;;;;;;;2.63;1.30;;;9.90;99.90;;;;;;4980697;28;20840;-80
2023/11/09 00:55:09;;;;;;;2.80;2.10;;;9.90;99.90;;;;;;4970750;28;20480;-82
2023/11/09 00:57:36;;;;;;;2.03;1.60;;;9.90;99.90;;;;;;4971995;28;20462;-82
2023/11/09 01:00:04;;;;;;;4.03;1.40;;;9.90;99.90;;;;;;4977205;28;20466;-81
2023/11/09 01:02:37;;;;;;;5.37;1.60;;;9.80;99.90;;;;;;4969877;28;20495;-81
2023/11/09 01:05:04;;;;;;;3.40;1.67;;;9.90;99.90;;;;;;4977100;28;20483;-81
2023/11/09 01:07:31;;;;;;;2.80;1.70;;;9.80;99.90;;;;;;4974343;28;20516;-80
2023/11/09 01:09:57;;;;;;;4.80;1.80;;;9.90;99.90;;;;;;4976145;28;20464;-80
2023/11/09 01:12:26;;;;;;;3.50;1.40;;;9.90;99.90;;;;;;4977136;28;20554;-80
2023/11/09 01:14:53;;;;;;;2.17;1.23;;;9.90;99.90;;;;;;4976762;28;20562;-81
2023/11/09 01:17:20;;;;;;;3.00;1.63;;;10.00;99.90;;;;;;4979938;28;20458;-81
2023/11/09 01:19:46;;;;;;;2.00;1.63;;;10.00;99.90;;;;;;4977892;28;20546;-79
2023/11/09 01:22:13;;;;;;;2.13;1.33;;;10.00;99.90;;;;;;4980223;28;20490;-81
2023/11/09 01:24:41;;;;;;;2.33;1.20;;;9.90;99.90;;;;;;4972624;28;20486;-81
2023/11/09 01:27:08;;;;;;;3.10;1.37;;;10.00;99.90;;;;;;4979882;28;20488;-81
2023/11/09 01:29:36;;;;;;;2.90;1.23;;;10.00;99.90;;;;;;4978879;28;20557;-83
2023/11/09 01:32:03;;;;;;;2.33;1.33;;;10.00;99.90;;;;;;4979747;28;20847;-79
2023/11/09 01:34:29;;;;;;;2.10;1.83;;;10.00;99.90;;;;;;4983358;28;20906;-81
2023/11/09 01:36:57;;;;;;;2.77;1.47;;;10.00;99.90;;;;;;4981352;28;20857;-82
2023/11/09 01:39:24;;;;;;;2.57;1.20;;;10.00;99.90;;;;;;4980600;28;20501;-83
2023/11/09 01:41:51;;;;;;;2.97;1.63;;;10.00;99.90;;;;;;4980503;28;20629;-83
2023/11/09 01:44:18;;;;;;;2.00;1.50;;;10.00;99.90;;;;;;4980021;28;20483;-82
2023/11/09 01:46:52;;;;;;;2.90;1.20;;;10.00;99.90;;;;;;4980857;28;20461;-83
2023/11/09 01:49:20;;;;;;;5.37;1.20;;;9.90;99.90;;;;;;4980174;28;20466;-83
2023/11/09 01:51:48;;;;;;;3.17;1.50;;;10.00;99.90;;;;;;4989802;28;20483;-81
2023/11/09 01:54:19;;;;;;;2.73;1.33;;;10.00;99.90;;;;;;4997527;28;20478;-79
2023/11/09 01:56:46;;;;;;;3.13;1.17;;;10.00;99.90;;;;;;4997708;28;20664;-81
2023/11/09 01:59:12;;;;;;;2.87;1.43;;;10.00;99.90;;;;;;4998050;28;20459;-79
2023/11/09 02:01:42;;;;;;;3.10;1.73;;;10.00;99.90;;;;;;4998427;28;20545;-79
2023/11/09 02:04:11;;;;;;;3.70;1.43;;;10.00;99.90;;;;;;4992082;28;20466;-83
2023/11/09 02:06:39;;;;;;;3.60;1.40;;;10.00;99.90;;;;;;4985250;28;20470;-84
2023/11/09 02:09:07;;;;;;;2.20;1.20;;;10.00;99.90;;;;;;4983291;28;20470;-82
2023/11/09 02:11:34;;;;;;;1.73;1.20;;;10.00;99.90;;;;;;4983819;28;20543;-83
2023/11/09 02:14:02;;;;;;;2.10;1.20;;;10.10;99.90;;;;;;4982682;28;20464;-83
2023/11/09 02:16:28;;;;;;;3.30;1.43;;;10.00;99.90;;;;;;4984972;28;20462;-83
2023/11/09 02:18:55;;;;;;;2.53;1.40;;;10.00;99.90;;;;;;4989284;28;20514;-82
2023/11/09 02:21:25;;;;;;;3.73;1.20;;;10.10;99.90;;;;;;4996465;28;20494;-80
2023/11/09 02:23:54;;;;;;;1.93;1.23;;;10.10;99.90;;;;;;4995210;28;20465;-79
2023/11/09 02:26:23;;;;;;;2.93;1.50;;;10.10;99.90;;;;;;4994766;28;20465;-80
2023/11/09 02:28:53;;;;;;;1.70;1.27;;;10.10;99.90;;;;;;4991702;28;20494;-80
2023/11/09 02:31:20;;;;;;;3.10;1.47;;;10.10;99.90;;;;;;4996226;28;20455;-79
2023/11/09 02:33:46;;;;;;;2.53;1.43;;;10.10;99.90;;;;;;4990025;28;20516;-79
2023/11/09 02:36:14;;;;;;;4.13;1.53;;;10.10;99.90;;;;;;4993558;28;20475;-80
2023/11/09 02:38:40;;;;;;;1.97;1.40;;;10.00;99.90;;;;;;4992609;28;20484;-79
2023/11/09 02:41:08;;;;;;;3.30;1.40;;;10.00;99.90;;;;;;4996083;28;20479;-80
2023/11/09 02:43:40;;;;;;;4.30;1.30;;;10.10;99.90;;;;;;4996017;28;21012;-80
2023/11/09 02:46:10;;;;;;;1.90;1.30;;;10.10;99.90;;;;;;4995365;28;21078;-78
2023/11/09 02:48:36;;;;;;;1.90;1.30;;;10.10;99.90;;;;;;4995455;28;20495;-79
2023/11/09 02:51:04;;;;;;;2.60;1.40;;;10.10;99.90;;;;;;4986071;28;20456;-80
2023/11/09 02:53:31;;;;;;;3.20;1.60;;;10.00;99.90;;;;;;4979617;28;20895;-83
2023/11/09 02:55:58;;;;;;;2.67;1.60;;;10.00;99.90;;;;;;4980950;28;20475;-81
2023/11/09 02:58:25;;;;;;;3.33;1.40;;;10.00;99.90;;;;;;4980707;28;20470;-83
2023/11/09 03:00:54;;;;;;;2.03;1.30;;;9.90;99.90;;;;;;4981088;28;20515;-83
2023/11/09 03:03:22;;;;;;;3.20;1.70;;;10.00;99.90;;;;;;4975206;28;20464;-81
2023/11/09 03:05:48;;;;;;;2.80;1.30;;;9.90;99.90;;;;;;4975940;28;20487;-80
2023/11/09 03:08:15;;;;;;;2.00;1.30;;;9.90;99.90;;;;;;4975582;28;20537;-81
2023/11/09 03:10:42;;;;;;;5.00;1.20;;;9.90;99.90;;;;;;4978989;28;20470;-83
2023/11/09 03:13:09;;;;;;;2.10;1.50;;;10.00;99.90;;;;;;4979712;28;20459;-82
2023/11/09 03:15:36;;;;;;;3.00;1.70;;;10.00;99.90;;;;;;4980583;28;20501;-83
2023/11/09 03:18:05;;;;;;;2.43;1.30;;;10.00;99.90;;;;;;4980383;28;20458;-82
2023/11/09 03:20:32;;;;;;;2.30;1.70;;;10.00;99.90;;;;;;4979552;28;20466;-84
2023/11/09 03:22:59;;;;;;;4.33;1.67;;;10.10;99.90;;;;;;4976960;28;20505;-83
2023/11/09 03:25:26;;;;;;;1.87;1.30;;;10.00;99.90;;;;;;4980137;28;20492;-83
2023/11/09 03:27:52;;;;;;;2.27;1.37;;;10.10;99.90;;;;;;4979816;28;20563;-84
2023/11/09 03:30:20;;;;;;;2.20;1.50;;;10.10;99.90;;;;;;4972885;28;20456;-84
2023/11/09 03:32:47;;;;;;;2.20;1.20;;;10.00;99.90;;;;;;4971412;28;20479;-81
2023/11/09 03:35:15;;;;;;;1.67;1.20;;;10.00;99.90;;;;;;4979073;28;20506;-84
2023/11/09 03:37:42;;;;;;;1.60;1.03;;;10.00;99.90;;;;;;4979617;28;20466;-82
2023/11/09 03:40:10;;;;;;;4.53;1.43;;;10.00;99.90;;;;;;4978828;28;20471;-84
2023/11/09 03:42:37;;;;;;;2.20;1.43;;;10.00;99.90;;;;;;4979503;28;20533;-83
2023/11/09 03:45:04;;;;;;;2.70;1.40;;;10.10;99.90;;;;;;4978953;28;20494;-83
2023/11/09 03:47:31;;;;;;;6.03;1.50;;;10.10;99.90;;;;;;4979301;28;20466;-82
2023/11/09 03:49:57;;;;;;;3.00;1.37;;;10.00;99.90;;;;;;4979605;28;20471;-84
2023/11/09 03:52:27;;;;;;;2.43;1.30;;;10.10;99.90;;;;;;4980076;28;20458;-82
2023/11/09 03:54:54;;;;;;;2.67;1.50;;;10.00;99.90;;;;;;4975040;28;20901;-83
2023/11/09 03:57:21;;;;;;;2.83;1.33;;;10.10;99.90;;;;;;4979389;28;20462;-84
2023/11/09 03:59:47;;;;;;;1.70;1.30;;;10.10;99.90;;;;;;4978810;28;20535;-82
2023/11/09 04:02:14;;;;;;;1.50;1.00;;;10.00;99.90;;;;;;4979099;28;20494;-83
2023/11/09 04:04:41;;;;;;;1.77;1.03;;;10.10;99.90;;;;;;4979797;28;20562;-84
2023/11/09 04:07:08;;;;;;;2.80;1.10;;;10.10;99.90;;;;;;4979716;28;20456;-84
2023/11/09 04:09:36;;;;;;;1.50;1.10;;;10.00;99.90;;;;;;4978088;28;20468;-83
2023/11/09 04:12:04;;;;;;;2.80;1.10;;;10.10;99.90;;;;;;4979694;28;20516;-81
2023/11/09 04:14:31;;;;;;;1.60;1.00;;;10.00;99.90;;;;;;4978690;28;20489;-82
2023/11/09 04:16:58;;;;;;;1.80;1.10;;;10.10;99.90;;;;;;4978335;28;20914;-84
2023/11/09 04:19:25;;;;;;;2.70;1.20;;;10.10;99.90;;;;;;4978051;28;20534;-83
2023/11/09 04:21:53;;;;;;;2.33;1.07;;;10.10;99.90;;;;;;4978506;28;20498;-84
2023/11/09 04:24:20;;;;;;;2.07;1.10;;;10.10;99.90;;;;;;4977753;28;20483;-84
2023/11/09 04:26:48;;;;;;;2.10;1.10;;;10.10;99.90;;;;;;4979046;28;20485;-82
2023/11/09 04:29:16;;;;;;;2.77;1.20;;;10.10;99.90;;;;;;4976034;28;20845;-83
2023/11/09 04:31:47;;;;;;;1.60;1.10;;;10.10;99.90;;;;;;4977823;28;20452;-84
2023/11/09 04:34:14;;;;;;;1.70;1.37;;;10.20;99.90;;;;;;4978235;28;20493;-83
2023/11/09 04:36:43;;;;;;;1.80;1.00;;;10.20;99.90;;;;;;4978292;28;20896;-83
2023/11/09 04:39:10;;;;;;;1.93;0.90;;;10.20;99.90;;;;;;4978258;28;20479;-83
2023/11/09 04:41:37;;;;;;;1.50;1.03;;;10.10;99.90;;;;;;4976258;28;20469;-82
2023/11/09 04:44:11;;;;;;;10.23;1.20;;;10.10;99.90;;;;;;4976935;28;20968;-81
2023/11/09 04:46:41;;;;;;;1.70;1.10;;;10.20;99.90;;;;;;4978289;28;20472;-81
2023/11/09 04:49:08;;;;;;;1.90;1.00;;;10.20;99.90;;;;;;4977288;28;20470;-84
2023/11/09 04:51:35;;;;;;;4.87;1.13;;;10.20;99.90;;;;;;4975530;28;20816;-84
2023/11/09 04:54:07;;;;;;;1.70;1.07;;;10.20;99.90;;;;;;4976817;28;20541;-81
2023/11/09 04:56:53;;;;;;;3.00;1.10;;;10.30;99.90;;;;;;4968768;28;20488;-83
2023/11/09 05:07:35;;;;;;;3.33;2.10;;;10.30;99.90;;;;;;4990868;28;20435;-81
2023/11/09 05:10:03;;;;;;;1.53;1.00;;;10.20;99.90;;;;;;4990277;28;20459;-82
2023/11/09 05:12:32;;;;;;;2.63;1.10;;;10.20;99.90;;;;;;4985069;28;20452;-79
2023/11/09 05:15:00;;;;;;;2.00;1.10;;;10.20;99.90;;;;;;4984881;28;20478;-83
2023/11/09 05:17:29;;;;;;;1.60;1.10;;;10.20;99.90;;;;;;4980518;28;20903;-82
2023/11/09 05:20:10;;;;;;;2.47;1.10;;;10.30;99.90;;;;;;4980077;28;21022;-82
2023/11/09 05:22:37;;;;;;;2.07;1.13;;;10.30;99.90;;;;;;4977573;28;20601;-82
2023/11/09 05:25:05;;;;;;;1.50;1.00;;;10.30;99.90;;;;;;4978709;28;20562;-81
2023/11/09 05:27:32;;;;;;;1.63;1.20;;;10.30;99.90;;;;;;4978084;28;20462;-80
2023/11/09 05:30:00;;;;;;;2.60;1.60;;;10.30;99.90;;;;;;4977332;28;20459;-81
2023/11/09 05:32:27;;;;;;;3.10;1.30;;;10.30;99.90;;;;;;4974543;28;20465;-84
2023/11/09 05:34:54;;;;;;;2.17;1.43;;;10.30;99.90;;;;;;4976366;28;20509;-83
2023/11/09 05:37:21;;;;;;;3.73;2.70;;;10.30;99.90;;;;;;4977477;28;20526;-83
2023/11/09 05:39:49;;;;;;;1.70;1.13;;;10.40;99.90;;;;;;4975432;28;20497;-81
2023/11/09 05:42:16;;;;;;;2.50;1.30;;;10.40;99.90;;;;;;4975958;28;20497;-83
2023/11/09 05:44:43;;;;;;;2.50;1.30;;;10.30;99.90;;;;;;4975456;28;20490;-82
2023/11/09 05:47:11;;;;;;;2.33;1.17;;;10.30;99.90;;;;;;4976722;28;20470;-83
2023/11/09 05:49:38;;;;;;;2.00;1.30;;;10.30;99.90;;;;;;4976033;28;20501;-82
2023/11/09 05:52:05;;;;;;;2.03;1.10;;;10.30;99.90;;;;;;4975381;28;20972;-81
2023/11/09 05:54:32;;;;;;;2.57;1.03;;;10.30;99.90;;;;;;4975218;28;20489;-81
2023/11/09 05:56:58;;;;;;;2.17;1.03;;;10.30;99.90;;;;;;4973918;28;20968;-84
2023/11/09 05:59:25;;;;;;;2.57;1.30;;;10.30;99.90;;;;;;4975860;28;20991;-81
2023/11/09 06:01:52;;;;;;;2.10;1.20;;;10.30;99.90;;;;;;4977023;28;20550;-82
2023/11/09 06:04:20;;;;;;;2.23;0.87;;;10.30;99.90;;;;;;4980313;28;20513;-81
2023/11/09 06:06:47;;;;;;;2.53;1.20;;;10.30;99.90;;;;;;4979065;28;20541;-78
2023/11/09 06:09:15;;;;;;;2.00;1.10;;;10.30;99.90;;;;;;4979152;28;20930;-80
2023/11/09 06:11:43;;;;;;;3.03;1.10;;;10.30;99.90;;;;;;4980622;28;20471;-80
2023/11/09 06:14:10;;;;;;;2.07;0.90;;;10.20;99.90;;;;;;4980584;28;20463;-81
2023/11/09 06:16:37;;;;;;;2.00;0.90;;;10.20;99.90;;;;;;4982258;28;20459;-79
2023/11/09 06:19:04;;;;;;;1.77;0.90;;;10.20;99.90;;;;;;4979248;28;20463;-80
2023/11/09 06:21:35;;;;;;;1.50;0.97;;;10.10;99.90;;;;;;4982508;28;20456;-80
2023/11/09 06:24:02;;;;;;;2.53;0.90;;;10.10;99.90;;;;;;4982140;28;20585;-81
2023/11/09 06:26:29;;;;;;;2.80;1.10;;;10.10;99.90;;;;;;4980936;28;20468;-83
2023/11/09 06:28:55;;;;;;;1.47;0.80;;;10.10;99.90;;;;;;4979799;28;20926;-81
2023/11/09 06:31:23;;;;;;;1.97;1.20;;;10.10;99.90;;;;;;4980898;28;20469;-81
2023/11/09 06:33:51;;;;;;;1.57;0.80;;;10.00;99.90;;;;;;4979815;28;20478;-83
2023/11/09 06:39:19;;;;;;;2.20;1.30;;;10.00;99.90;;;;;;4973283;28;20466;-81
2023/11/09 06:41:47;;;;;;;2.77;1.03;;;10.00;99.90;;;;;;4975684;28;20789;-81
2023/11/09 06:44:14;;;;;;;1.97;0.90;;;10.00;99.90;;;;;;4973796;28;20914;-82
2023/11/09 06:46:41;;;;;;;2.57;1.03;;;10.10;99.90;;;;;;4980550;28;20456;-81
2023/11/09 06:49:08;;;;;;;2.10;1.20;;;10.10;99.90;;;;;;4977734;28;20481;-80
2023/11/09 06:51:35;;;;;;;1.80;0.90;;;10.00;99.90;;;;;;4980734;28;20458;-83
2023/11/09 06:54:02;;;;;;;2.57;1.30;;;10.00;99.90;;;;;;4980582;28;20504;-81
2023/11/09 06:56:32;;;;;;;2.07;1.23;;;10.00;99.90;;;;;;4976238;28;20480;-83
2023/11/09 06:58:59;;;;;;;1.73;1.07;;;10.00;99.90;;;;;;4978191;28;20532;-83
2023/11/09 07:01:26;;;;;;;2.90;1.00;;;10.10;99.90;;;;;;4973965;28;20494;-82
2023/11/09 07:03:53;;;;;;;2.90;1.20;;;10.00;99.90;;;;;;4969762;28;20869;-81
2023/11/09 07:06:22;;;;;;;1.50;0.90;;;10.00;99.90;;;;;;4971419;28;20550;-82
2023/11/09 07:08:49;;;;;;;1.77;1.20;;;10.00;99.90;;;;;;4975211;28;20559;-82
2023/11/09 07:11:16;;;;;;;1.50;0.93;;;10.00;99.90;;;;;;4973035;28;20464;-83
2023/11/09 07:13:45;;;;;;;1.60;1.00;;;10.10;99.90;;;;;;4973821;28;20452;-82
2023/11/09 07:16:12;;;;;;;3.37;1.10;;;10.10;99.90;;;;;;4975941;28;20566;-82
2023/11/09 07:18:40;;;;;;;1.70;1.00;;;10.10;99.90;;;;;;4974482;28;20459;-81
2023/11/09 07:21:08;;;;;;;2.30;1.20;;;10.10;99.90;;;;;;4975685;28;20474;-82
2023/11/09 07:23:35;;;;;;;2.40;1.03;;;10.20;99.90;;;;;;4975745;28;21014;-81
2023/11/09 07:26:02;;;;;;;2.63;1.30;;;10.10;99.90;;;;;;4976896;28;20573;-81
2023/11/09 07:28:31;;;;;;;3.57;1.30;;;10.20;99.90;;;;;;4974769;28;20957;-83
2023/11/09 07:31:00;;;;;;;2.30;1.10;;;10.20;99.90;;;;;;4974023;28;20465;-83
2023/11/09 07:33:27;;;;;;;1.53;0.90;;;10.20;99.90;;;;;;4975098;28;20510;-82
2023/11/09 07:35:56;;;;;;;1.53;1.00;;;10.20;99.90;;;;;;4973073;28;20474;-82
2023/11/09 07:38:23;;;;;;;1.63;1.10;;;10.20;99.90;;;;;;4973517;28;20842;-81
2023/11/09 07:40:50;;;;;;;2.53;0.97;;;10.20;99.90;;;;;;4971690;28;20455;-82
2023/11/09 07:43:18;;;;;;;1.50;1.03;;;10.10;99.90;;;;;;4978267;28;20901;-82
2023/11/09 07:45:45;;;;;;;1.60;1.00;;;10.20;99.90;;;;;;4978294;28;20481;-82
2023/11/09 07:48:16;;;;;;;2.17;1.20;;;10.20;99.90;;;;;;4976944;28;20480;-80
2023/11/09 07:50:43;;;;;;;1.60;0.90;;;10.10;99.90;;;;;;4977063;28;20485;-80
2023/11/09 07:53:11;;;;;;;1.90;1.00;;;10.10;99.90;;;;;;4975508;28;20663;-81
2023/11/09 07:55:37;;;;;;;1.77;1.00;;;10.10;99.90;;;;;;4974143;28;20486;-80
2023/11/09 07:58:05;;;;;;;2.30;1.10;;;10.10;99.90;;;;;;4972934;28;20563;-80
2023/11/09 08:00:33;;;;;;;2.50;1.20;;;10.10;99.90;;;;;;4975538;28;20994;-82
2023/11/09 08:03:01;;;;;;;1.60;1.00;;;10.10;99.90;;;;;;4974543;28;20580;-82
2023/11/09 08:05:32;;;;;;;1.93;1.27;;;10.10;99.90;;;;;;4974123;28;20487;-83
2023/11/09 08:07:59;;;;;;;3.63;1.10;;;10.10;99.90;;;;;;4974510;28;20484;-82
2023/11/09 08:10:27;;;;;;;2.90;1.37;;;10.10;99.90;;;;;;4975551;28;20466;-84
2023/11/09 08:12:55;;;;;;;1.60;1.00;;;10.20;99.90;;;;;;4973274;28;20514;-84
2023/11/09 08:15:22;;;;;;;3.43;1.53;;;10.30;99.90;;;;;;4971053;28;20559;-82
2023/11/09 08:17:49;;;;;;;1.60;0.93;;;10.30;99.90;;;;;;4988343;28;20487;-82
2023/11/09 08:20:16;;;;;;;1.60;1.00;;;10.40;99.90;;;;;;4992271;28;20479;-82
2023/11/09 08:22:45;;;;;;;2.33;1.40;;;10.40;99.90;;;;;;4990317;28;20449;-82
2023/11/09 08:25:13;;;;;;;1.70;1.10;;;10.40;99.90;;;;;;4992302;28;20470;-82
2023/11/09 08:27:41;;;;;;;2.23;1.63;;;10.40;99.90;;;;;;4993561;28;20455;-81
2023/11/09 08:30:09;;;;;;;3.60;1.77;;;10.50;99.90;;;;;;4977716;28;20447;-81
2023/11/09 08:32:37;;;;;;;2.83;2.20;;;10.50;99.90;;;;;;4980275;28;20554;-81
2023/11/09 08:35:09;;;;;;;3.50;2.33;;;10.50;99.90;;;;;;4976906;28;20475;-81
2023/11/09 08:37:38;;;;;;;3.83;2.37;;;10.60;99.90;;;;;;4975116;28;20460;-81
2023/11/09 08:40:09;;;;;;;3.00;1.70;;;10.60;99.90;;;;;;4974819;28;20509;-83
2023/11/09 08:42:36;;;;;;;1.60;1.10;;;10.60;99.90;;;;;;4976469;28;20530;-82
2023/11/09 08:45:05;;;;;;;1.50;1.07;;;10.70;99.90;;;;;;4979400;28;20526;-81
2023/11/09 08:47:32;;;;;;;1.60;1.07;;;10.70;99.90;;;;;;4980294;28;20510;-82
2023/11/09 08:49:59;;;;;;;1.80;1.13;;;10.70;99.90;;;;;;4981869;28;20470;-83
2023/11/09 08:52:27;;;;;;;2.50;1.20;;;10.70;99.90;;;;;;4981475;28;20555;-84
2023/11/09 08:54:56;;;;;;;2.50;1.33;;;10.60;99.90;;;;;;4982295;28;20505;-83
2023/11/09 08:57:24;;;;;;;3.83;1.40;;;10.70;99.90;;;;;;4980547;28;20887;-83
2023/11/09 08:59:51;;;;;;;3.50;1.30;;;10.70;99.90;;;;;;4982211;28;20498;-82
2023/11/09 09:02:18;;;;;;;2.23;1.40;;;10.70;99.90;;;;;;4984654;28;20450;-82
2023/11/09 09:04:45;;;;;;;2.37;0.97;;;10.70;99.90;;;;;;4986206;28;20622;-82
2023/11/09 09:07:12;;;;;;;1.80;1.10;;;10.70;99.90;;;;;;4988548;28;20460;-80
2023/11/09 09:09:41;;;;;;;2.10;1.07;;;10.70;99.90;;;;;;4991501;28;20465;-82
2023/11/09 09:12:10;;;;;;;1.70;1.13;;;10.80;99.90;;;;;;4991761;28;20444;-81
2023/11/09 09:14:38;;;;;;;3.03;1.30;;;10.80;99.90;;;;;;4986011;28;20486;-80
2023/11/09 09:17:05;;;;;;;4.93;1.30;;;10.80;99.90;;;;;;4979033;28;20550;-81
2023/11/09 09:19:33;;;;;;;3.20;1.20;;;10.80;99.90;;;;;;4980848;28;20464;-83
2023/11/09 09:22:00;;;;;;;5.80;1.30;;;10.70;99.90;;;;;;4980811;28;20456;-83
2023/11/09 09:24:27;;;;;;;2.50;1.20;;;10.70;99.90;;;;;;4980644;28;20518;-81
2023/11/09 09:26:54;;;;;;;7.10;1.83;;;10.80;99.90;;;;;;4974842;28;20452;-81
2023/11/09 09:29:21;;;;;;;3.57;1.40;;;10.80;99.90;;;;;;4979367;28;20494;-80
2023/11/09 09:31:49;;;;;;;3.17;1.40;;;10.90;99.90;;;;;;4980397;28;20489;-82
2023/11/09 09:34:23;;;;;;;2.47;1.40;;;10.90;99.90;;;;;;4980070;28;20497;-82
2023/11/09 09:36:50;;;;;;;6.17;1.83;;;10.80;99.90;;;;;;4979469;28;20470;-82
2023/11/09 09:39:17;;;;;;;4.40;1.67;;;10.80;99.90;;;;;;4982531;28;20459;-82
2023/11/09 09:41:50;;;;;;;4.13;1.40;;;10.80;99.90;;;;;;4984145;28;20456;-81
2023/11/09 09:44:18;;;;;;;3.50;1.87;;;10.90;99.90;;;;;;4982751;28;20503;-81
2023/11/09 09:46:45;;;;;;;4.70;1.90;;;10.80;99.90;;;;;;4982756;28;20455;-82
2023/11/09 09:49:14;;;;;;;5.10;1.60;;;10.90;99.90;;;;;;4982315;28;20451;-82
2023/11/09 09:51:41;;;;;;;5.20;1.80;;;10.90;99.90;;;;;;4983013;28;20460;-81
2023/11/09 09:54:09;;;;;;;4.07;1.80;;;10.90;99.90;;;;;;4982703;28;20528;-82
2023/11/09 09:56:39;;;;;;;7.93;1.90;;;11.10;99.90;;;;;;4982430;28;20468;-79
2023/11/09 09:59:07;;;;;;;4.47;1.67;;;11.10;99.90;;;;;;4982851;28;20462;-82
2023/11/09 10:01:37;;;;;;;3.60;1.60;;;11.20;99.90;;;;;;4982562;28;20464;-81
2023/11/09 10:04:06;;;;;;;5.07;2.17;;;11.30;99.90;;;;;;4983122;28;20578;-80
2023/11/09 10:06:34;;;;;;;8.40;2.40;;;11.50;99.90;;;;;;4983058;28;20465;-81
2023/11/09 10:09:05;;;;;;;6.97;2.00;;;11.70;99.90;;;;;;4982055;28;20460;-81
2023/11/09 10:11:32;;;;;;;6.77;2.10;;;11.80;99.90;;;;;;4974384;28;20509;-82
2023/11/09 10:14:01;;;;;;;4.80;1.90;;;11.80;99.90;;;;;;4982634;28;20448;-81
2023/11/09 10:16:31;;;;;;;4.20;2.33;;;11.80;99.90;;;;;;4982224;28;20459;-82
2023/11/09 10:19:01;;;;;;;4.57;2.57;;;11.80;99.90;;;;;;4981779;28;20547;-80
2023/11/09 10:21:30;;;;;;;6.70;1.63;;;11.90;99.90;;;;;;4982647;28;20465;-82
2023/11/09 10:24:01;;;;;;;7.33;1.90;;;12.00;99.90;;;;;;4982162;28;21095;-81
2023/11/09 10:26:40;;;;;;;5.77;1.83;;;11.90;99.90;;;;;;4981613;28;20460;-81
2023/11/09 10:29:07;;;;;;;5.73;2.93;;;11.90;99.90;;;;;;4982162;28;20466;-82
2023/11/09 10:31:34;;;;;;;3.63;1.50;;;11.90;99.90;;;;;;4981972;28;20457;-82
2023/11/09 10:34:02;;;;;;;5.40;1.87;;;12.00;99.90;;;;;;4981608;28;20483;-81
2023/11/09 10:36:31;;;;;;;6.50;2.67;;;11.80;99.90;;;;;;4974184;28;21118;-82
2023/11/09 10:38:59;;;;;;;8.47;1.77;;;12.00;99.90;;;;;;4981214;28;20462;-82
2023/11/09 10:41:27;;;;;;;7.83;2.00;;;12.10;99.90;;;;;;4980063;28;20472;-82
2023/11/09 10:43:59;;;;;;;5.87;1.87;;;12.20;99.90;;;;;;4979479;28;20496;-80
2023/11/09 10:46:27;;;;;;;5.93;1.87;;;12.20;99.90;;;;;;4979761;28;20468;-79
2023/11/09 10:48:58;;;;;;;2.70;1.47;;;12.20;99.90;;;;;;4978496;28;20458;-81
2023/11/09 10:51:28;;;;;;;5.03;1.70;;;12.30;99.90;;;;;;4980252;28;20561;-82
2023/11/09 10:53:59;;;;;;;5.93;1.77;;;12.30;99.90;;;;;;4980070;28;20457;-82
2023/11/09 10:56:29;;;;;;;6.17;1.73;;;12.30;99.90;;;;;;4979362;28;20461;-80
2023/11/09 10:58:56;;;;;;;6.63;2.27;;;12.40;99.90;;;;;;4979393;28;20912;-81
2023/11/09 11:01:28;;;;;;;7.07;2.27;;;12.50;99.90;;;;;;4979635;28;20894;-81
2023/11/09 11:03:58;;;;;;;8.37;2.27;;;12.70;99.90;;;;;;4979595;28;20548;-80
2023/11/09 11:06:32;;;;;;;7.03;2.40;;;12.70;99.90;;;;;;4979948;28;20830;-81
2023/11/09 11:09:07;;;;;;;7.77;2.73;;;12.70;92.40;;;;;;4979507;28;20518;-81
2023/11/09 11:11:36;;;;;;;7.30;1.83;;;12.80;99.90;;;;;;4979384;28;20461;-81
2023/11/09 11:14:08;;;;;;;8.30;2.30;;;12.80;99.30;;;;;;4979628;28;20501;-82
2023/11/09 11:16:56;;;;;;;10.37;2.90;;;12.80;98.20;;;;;;4979132;28;20489;-80
2023/11/09 11:20:01;;;;;;;6.30;2.03;;;12.70;99.90;;;;;;4979103;28;20545;-81
2023/11/09 11:22:56;;;;;;;7.80;2.70;;;12.80;99.90;;;;;;4979275;28;20554;-82
2023/11/09 11:25:30;;;;;;;3.60;1.50;;;12.90;77.80;;;;;;4978002;28;20532;-80
2023/11/09 11:28:00;;;;;;;8.93;2.40;;;12.90;70.40;;;;;;4983217;28;20452;-78
2023/11/09 11:30:28;;;;;;;8.80;2.17;;;12.90;57.00;;;;;;4990705;28;20498;-78
2023/11/09 11:32:57;;;;;;;6.37;2.10;;;12.90;53.10;;;;;;4991547;28;20499;-79
2023/11/09 11:35:33;;;;;;;6.33;1.70;;;13.00;87.60;;;;;;4990920;28;20482;-79
2023/11/09 11:38:05;;;;;;;6.07;2.37;;;12.90;31.90;;;;;;4990809;28;20463;-79
2023/11/09 11:40:38;;;;;;;4.00;1.90;;;12.90;45.80;;;;;;4987227;28;20528;-81
2023/11/09 11:43:08;;;;;;;6.50;1.73;;;13.00;43.50;;;;;;4982249;28;20469;-80
2023/11/09 11:45:35;;;;;;;8.67;2.27;;;13.00;26.20;;;;;;4979998;28;20495;-81
2023/11/09 11:48:05;;;;;;;4.80;2.50;;;13.10;59.50;;;;;;4980000;28;20464;-80
2023/11/09 11:50:34;;;;;;;4.50;1.97;;;13.20;1.00;;;;;;4979944;28;20458;-79
2023/11/09 11:53:06;;;;;;;4.27;1.73;;;13.20;1.00;;;;;;4982978;28;20448;-81
2023/11/09 11:55:33;;;;;;;12.50;3.43;;;13.20;1.00;;;;;;4980904;28;20506;-81
2023/11/09 11:58:03;;;;;;;6.00;2.13;;;13.30;1.00;;;;;;4979932;28;21021;-81
2023/11/09 12:00:39;;;;;;;6.30;2.10;;;13.40;1.00;;;;;;4978924;28;20488;-81
2023/11/09 12:03:09;;;;;;;6.33;2.20;;;13.40;1.00;;;;;;4979785;28;20453;-82
2023/11/09 12:05:39;;;;;;;4.93;1.80;;;13.30;1.00;;;;;;4981796;28;20503;-81
2023/11/09 12:08:06;;;;;;;7.97;2.43;;;13.20;1.00;;;;;;4983627;28;20487;-81
2023/11/09 12:10:39;;;;;;;4.00;2.17;;;13.00;1.00;;;;;;4983488;28;20532;-78
2023/11/09 12:13:05;;;;;;;7.43;2.57;;;12.90;1.00;;;;;;4983074;28;20463;-81
2023/11/09 12:15:32;;;;;;;6.90;2.30;;;12.70;1.00;;;;;;4981932;28;20480;-79
2023/11/09 12:18:00;;;;;;;9.57;2.10;;;12.70;12.70;;;;;;4980018;28;20468;-81
2023/11/09 12:20:30;;;;;;;4.83;2.43;;;12.60;31.40;;;;;;4978287;28;20464;-82
2023/11/09 12:22:58;;;;;;;5.80;2.70;;;12.40;43.50;;;;;;4978136;28;20463;-81
2023/11/09 12:25:28;;;;;;;7.80;2.00;;;12.40;39.70;;;;;;4977684;28;20500;-79
2023/11/09 12:27:57;;;;;;;7.43;2.17;;;12.40;56.30;;;;;;4977973;28;20522;-79
2023/11/09 12:30:25;;;;;;;4.90;2.50;;;12.40;92.30;;;;;;4976976;28;20473;-81
2023/11/09 12:32:54;;;;;;;8.73;2.40;;;12.30;78.70;;;;;;4975116;28;20476;-81
2023/11/09 12:35:22;;;;;;;5.90;2.47;;;12.30;43.40;;;;;;4969748;28;20583;-82
2023/11/09 12:37:59;;;;;;;7.23;2.50;;;12.40;77.20;;;;;;4977142;28;21196;-81
2023/11/09 12:40:26;;;;;;;10.53;2.23;;;12.50;63.80;;;;;;4977167;28;20457;-80
2023/11/09 12:42:56;;;;;;;6.20;1.70;;;12.60;98.60;;;;;;4977116;28;20470;-79
2023/11/09 12:45:23;;;;;;;7.77;2.50;;;12.50;99.90;;;;;;4976882;28;20505;-78
2023/11/09 12:47:51;;;;;;;11.00;2.37;;;12.70;95.90;;;;;;4976799;28;20989;-79
2023/11/09 12:50:21;;;;;;;4.67;2.20;;;12.70;26.10;;;;;;4976216;28;20481;-79
2023/11/09 12:52:49;;;;;;;6.13;2.50;;;12.70;24.60;;;;;;4975899;28;20481;-78
2023/11/09 12:55:17;;;;;;;11.80;2.87;;;12.70;14.80;;;;;;4976308;28;20556;-79
2023/11/09 12:57:48;;;;;;;5.67;2.70;;;12.60;34.20;;;;;;4977289;28;20564;-79
2023/11/09 13:00:23;;;;;;;3.33;1.90;;;12.70;1.00;;;;;;4978270;28;20466;-80
2023/11/09 13:02:56;;;;;;;9.50;3.20;;;12.70;23.60;;;;;;4975822;28;20493;-79
2023/11/09 13:05:23;;;;;;;5.90;1.87;;;12.70;9.40;;;;;;4976132;28;20495;-79